logo
Rechercher aéroport 
image banner adimage banner adimage banner ad
image banner ad

FAYP - Afb Ysterplaat (Mil - Unlicensed)

Situé à Ysterplaat, South Africa

ICAO - FAYP, IATA -

Données fournies par Airmate  

Information générale

Coordonnées: S33°54'4" E18°29'51"
Élévation : 49 feet MSL.
Variation magnétique : -26° East
Voir autres Aéroports à Western Cape

Données opérationnelles

Special qualification required
Heure actuelle UTC:
Heure actuelle locale:
Météo à : - ( 0 km )
METAR: KUNV 191253Z VRB04KT 8SM HZ CLR 25/21 A3037
Voir NOTAMs / SUP AIP / TFR affectant cet aéroport [VIEW]
Fréquences de communication: [VIEW]

Pistes:

Identifiant RWYQFULongueur (ft)Largeur (ft)SurfaceLDA (ft)
02356°518695ASPH5200
20176°518695ASPH5200

Coordonnées de l'aéroport

Adresse: Ysterplaat South Africa

Vue satellite de FAYP